sensor_id;sensor_type;location;lat;lon;timestamp;P1;durP1;ratioP1;P2;durP2;ratioP2
46110;SDS011;31849;55.992;37.252;2023-02-28T00:00:19;13.27;;;6.67;;
46110;SDS011;31849;55.992;37.252;2023-02-28T00:05:23;13.05;;;6.03;;
46110;SDS011;31849;55.992;37.252;2023-02-28T00:10:30;13.30;;;7.00;;
46110;SDS011;31849;55.992;37.252;2023-02-28T00:15:34;13.50;;;6.73;;
46110;SDS011;31849;55.992;37.252;2023-02-28T00:20:37;13.98;;;5.85;;
46110;SDS011;31849;55.992;37.252;2023-02-28T00:25:42;13.10;;;6.63;;
46110;SDS011;31849;55.992;37.252;2023-02-28T00:30:46;13.00;;;6.47;;
46110;SDS011;31849;55.992;37.252;2023-02-28T00:35:50;11.13;;;5.55;;
46110;SDS011;31849;55.992;37.252;2023-02-28T00:40:55;11.73;;;5.80;;
46110;SDS011;31849;55.992;37.252;2023-02-28T00:45:58;10.43;;;5.17;;
46110;SDS011;31849;55.992;37.252;2023-02-28T00:51:03;11.32;;;5.57;;
46110;SDS011;31849;55.992;37.252;2023-02-28T00:56:08;11.65;;;5.95;;
46110;SDS011;31849;55.992;37.252;2023-02-28T01:01:12;9.27;;;5.37;;
46110;SDS011;31849;55.992;37.252;2023-02-28T01:06:15;11.43;;;5.33;;
46110;SDS011;31849;55.992;37.252;2023-02-28T01:11:20;9.40;;;5.20;;
46110;SDS011;31849;55.992;37.252;2023-02-28T01:16:23;9.87;;;4.97;;
46110;SDS011;31849;55.992;37.252;2023-02-28T01:21:27;10.23;;;4.82;;
46110;SDS011;31849;55.992;37.252;2023-02-28T01:26:33;12.10;;;4.70;;
46110;SDS011;31849;55.992;37.252;2023-02-28T01:31:36;9.13;;;4.77;;
46110;SDS011;31849;55.992;37.252;2023-02-28T01:36:40;9.40;;;5.13;;
46110;SDS011;31849;55.992;37.252;2023-02-28T01:41:45;8.80;;;4.60;;
46110;SDS011;31849;55.992;37.252;2023-02-28T01:46:48;9.53;;;4.93;;
46110;SDS011;31849;55.992;37.252;2023-02-28T01:51:52;9.47;;;4.67;;
46110;SDS011;31849;55.992;37.252;2023-02-28T01:57:01;9.77;;;4.83;;
46110;SDS011;31849;55.992;37.252;2023-02-28T02:02:07;9.70;;;4.23;;
46110;SDS011;31849;55.992;37.252;2023-02-28T02:07:10;8.77;;;4.77;;
46110;SDS011;31849;55.992;37.252;2023-02-28T02:12:21;8.67;;;4.33;;
46110;SDS011;31849;55.992;37.252;2023-02-28T02:17:33;10.40;;;4.70;;
46110;SDS011;31849;55.992;37.252;2023-02-28T02:22:53;8.37;;;4.43;;
46110;SDS011;31849;55.992;37.252;2023-02-28T02:28:30;8.00;;;3.97;;
46110;SDS011;31849;55.992;37.252;2023-02-28T02:39:31;8.90;;;4.43;;
46110;SDS011;31849;55.992;37.252;2023-02-28T02:44:43;8.40;;;4.00;;
46110;SDS011;31849;55.992;37.252;2023-02-28T02:49:53;7.63;;;3.93;;
46110;SDS011;31849;55.992;37.252;2023-02-28T02:55:00;8.63;;;4.30;;
46110;SDS011;31849;55.992;37.252;2023-02-28T03:00:07;7.17;;;3.73;;
46110;SDS011;31849;55.992;37.252;2023-02-28T03:05:16;6.87;;;4.03;;
46110;SDS011;31849;55.992;37.252;2023-02-28T03:10:29;9.10;;;3.83;;
46110;SDS011;31849;55.992;37.252;2023-02-28T03:15:37;7.27;;;3.47;;
46110;SDS011;31849;55.992;37.252;2023-02-28T03:20:53;8.27;;;3.83;;
46110;SDS011;31849;55.992;37.252;2023-02-28T03:26:10;7.47;;;3.70;;
46110;SDS011;31849;55.992;37.252;2023-02-28T03:31:21;5.77;;;3.17;;
46110;SDS011;31849;55.992;37.252;2023-02-28T03:36:32;6.67;;;3.30;;
46110;SDS011;31849;55.992;37.252;2023-02-28T03:41:45;6.70;;;3.53;;
46110;SDS011;31849;55.992;37.252;2023-02-28T03:46:54;6.67;;;3.13;;
46110;SDS011;31849;55.992;37.252;2023-02-28T03:52:04;7.13;;;2.97;;
46110;SDS011;31849;55.992;37.252;2023-02-28T03:57:11;6.40;;;3.17;;
46110;SDS011;31849;55.992;37.252;2023-02-28T04:02:21;8.43;;;3.13;;
46110;SDS011;31849;55.992;37.252;2023-02-28T04:07:28;7.23;;;3.77;;
46110;SDS011;31849;55.992;37.252;2023-02-28T04:12:32;7.10;;;3.37;;
46110;SDS011;31849;55.992;37.252;2023-02-28T04:17:35;7.10;;;3.60;;
46110;SDS011;31849;55.992;37.252;2023-02-28T04:22:40;6.13;;;3.60;;
46110;SDS011;31849;55.992;37.252;2023-02-28T04:27:44;5.73;;;2.93;;
46110;SDS011;31849;55.992;37.252;2023-02-28T04:32:47;6.50;;;3.37;;
46110;SDS011;31849;55.992;37.252;2023-02-28T04:37:52;6.13;;;3.20;;
46110;SDS011;31849;55.992;37.252;2023-02-28T04:42:55;8.30;;;4.10;;
46110;SDS011;31849;55.992;37.252;2023-02-28T04:47:59;6.80;;;3.60;;
46110;SDS011;31849;55.992;37.252;2023-02-28T04:53:04;7.97;;;4.20;;
46110;SDS011;31849;55.992;37.252;2023-02-28T04:58:07;7.03;;;3.70;;
46110;SDS011;31849;55.992;37.252;2023-02-28T05:03:11;6.07;;;3.30;;
46110;SDS011;31849;55.992;37.252;2023-02-28T05:08:16;5.87;;;3.20;;
46110;SDS011;31849;55.992;37.252;2023-02-28T05:13:19;7.03;;;3.53;;
46110;SDS011;31849;55.992;37.252;2023-02-28T05:18:23;6.53;;;3.47;;
46110;SDS011;31849;55.992;37.252;2023-02-28T05:23:28;7.77;;;3.57;;
46110;SDS011;31849;55.992;37.252;2023-02-28T05:28:32;6.67;;;3.60;;
46110;SDS011;31849;55.992;37.252;2023-02-28T05:33:35;5.50;;;3.30;;
46110;SDS011;31849;55.992;37.252;2023-02-28T05:38:40;7.43;;;3.50;;
46110;SDS011;31849;55.992;37.252;2023-02-28T05:43:43;5.87;;;3.00;;
46110;SDS011;31849;55.992;37.252;2023-02-28T05:48:47;6.53;;;3.30;;
46110;SDS011;31849;55.992;37.252;2023-02-28T05:53:53;6.22;;;3.53;;
46110;SDS011;31849;55.992;37.252;2023-02-28T06:03:59;5.50;;;3.10;;
46110;SDS011;31849;55.992;37.252;2023-02-28T06:09:05;5.22;;;3.10;;
46110;SDS011;31849;55.992;37.252;2023-02-28T06:19:16;6.13;;;2.92;;
46110;SDS011;31849;55.992;37.252;2023-02-28T06:24:21;5.15;;;3.05;;
46110;SDS011;31849;55.992;37.252;2023-02-28T06:29:26;6.13;;;3.28;;
46110;SDS011;31849;55.992;37.252;2023-02-28T06:34:29;5.20;;;2.83;;
46110;SDS011;31849;55.992;37.252;2023-02-28T06:39:34;7.07;;;3.20;;
46110;SDS011;31849;55.992;37.252;2023-02-28T06:44:38;6.85;;;2.95;;
46110;SDS011;31849;55.992;37.252;2023-02-28T06:49:42;5.07;;;2.90;;
46110;SDS011;31849;55.992;37.252;2023-02-28T06:54:48;5.18;;;2.58;;
46110;SDS011;31849;55.992;37.252;2023-02-28T07:00:02;5.68;;;2.78;;
46110;SDS011;31849;55.992;37.252;2023-02-28T07:05:09;6.25;;;3.10;;
46110;SDS011;31849;55.992;37.252;2023-02-28T07:10:14;5.65;;;3.10;;
46110;SDS011;31849;55.992;37.252;2023-02-28T07:15:20;5.75;;;3.30;;
46110;SDS011;31849;55.992;37.252;2023-02-28T07:20:24;5.07;;;3.30;;
46110;SDS011;31849;55.992;37.252;2023-02-28T07:25:29;6.85;;;3.17;;
46110;SDS011;31849;55.992;37.252;2023-02-28T07:30:32;5.47;;;3.28;;
46110;SDS011;31849;55.992;37.252;2023-02-28T07:35:36;6.50;;;4.05;;
46110;SDS011;31849;55.992;37.252;2023-02-28T07:40:41;6.80;;;3.10;;
46110;SDS011;31849;55.992;37.252;2023-02-28T07:45:46;7.15;;;3.20;;
46110;SDS011;31849;55.992;37.252;2023-02-28T07:50:53;7.18;;;3.03;;
46110;SDS011;31849;55.992;37.252;2023-02-28T07:56:00;5.35;;;2.95;;
46110;SDS011;31849;55.992;37.252;2023-02-28T08:01:05;5.55;;;3.45;;
46110;SDS011;31849;55.992;37.252;2023-02-28T08:06:15;6.00;;;2.90;;
46110;SDS011;31849;55.992;37.252;2023-02-28T08:11:21;5.90;;;3.30;;
46110;SDS011;31849;55.992;37.252;2023-02-28T08:21:28;6.10;;;3.03;;
46110;SDS011;31849;55.992;37.252;2023-02-28T08:26:33;4.73;;;2.90;;
46110;SDS011;31849;55.992;37.252;2023-02-28T08:36:40;5.72;;;3.13;;
46110;SDS011;31849;55.992;37.252;2023-02-28T08:41:45;7.30;;;3.30;;
46110;SDS011;31849;55.992;37.252;2023-02-28T08:46:59;5.85;;;2.85;;
46110;SDS011;31849;55.992;37.252;2023-02-28T08:52:03;5.43;;;2.60;;
46110;SDS011;31849;55.992;37.252;2023-02-28T08:57:08;5.97;;;3.33;;
46110;SDS011;31849;55.992;37.252;2023-02-28T09:07:15;4.75;;;2.80;;
46110;SDS011;31849;55.992;37.252;2023-02-28T09:12:20;4.38;;;2.33;;
46110;SDS011;31849;55.992;37.252;2023-02-28T09:17:24;4.40;;;2.83;;
46110;SDS011;31849;55.992;37.252;2023-02-28T09:22:31;4.78;;;2.60;;
46110;SDS011;31849;55.992;37.252;2023-02-28T09:27:36;5.28;;;2.83;;
46110;SDS011;31849;55.992;37.252;2023-02-28T09:32:41;6.80;;;2.80;;
46110;SDS011;31849;55.992;37.252;2023-02-28T09:37:53;4.72;;;2.90;;
46110;SDS011;31849;55.992;37.252;2023-02-28T09:42:58;4.60;;;2.88;;
46110;SDS011;31849;55.992;37.252;2023-02-28T09:48:03;4.72;;;2.60;;
46110;SDS011;31849;55.992;37.252;2023-02-28T09:53:14;4.75;;;2.65;;
46110;SDS011;31849;55.992;37.252;2023-02-28T09:58:28;5.03;;;3.17;;
46110;SDS011;31849;55.992;37.252;2023-02-28T10:03:38;5.88;;;3.20;;
46110;SDS011;31849;55.992;37.252;2023-02-28T10:08:45;6.82;;;3.30;;
46110;SDS011;31849;55.992;37.252;2023-02-28T10:13:56;6.00;;;3.58;;
46110;SDS011;31849;55.992;37.252;2023-02-28T10:19:09;6.72;;;3.17;;
46110;SDS011;31849;55.992;37.252;2023-02-28T10:24:20;5.82;;;3.58;;
46110;SDS011;31849;55.992;37.252;2023-02-28T10:29:34;7.22;;;3.42;;
46110;SDS011;31849;55.992;37.252;2023-02-28T10:34:38;5.68;;;3.40;;
46110;SDS011;31849;55.992;37.252;2023-02-28T10:39:42;5.65;;;3.30;;
46110;SDS011;31849;55.992;37.252;2023-02-28T10:44:48;7.30;;;4.00;;
46110;SDS011;31849;55.992;37.252;2023-02-28T10:49:52;6.97;;;3.40;;
46110;SDS011;31849;55.992;37.252;2023-02-28T10:54:57;6.95;;;4.00;;
46110;SDS011;31849;55.992;37.252;2023-02-28T11:00:20;6.22;;;3.42;;
46110;SDS011;31849;55.992;37.252;2023-02-28T11:05:28;6.93;;;3.58;;
46110;SDS011;31849;55.992;37.252;2023-02-28T11:10:33;5.68;;;3.35;;
46110;SDS011;31849;55.992;37.252;2023-02-28T11:15:38;7.35;;;3.83;;
46110;SDS011;31849;55.992;37.252;2023-02-28T11:20:42;6.60;;;3.83;;
46110;SDS011;31849;55.992;37.252;2023-02-28T11:25:52;7.55;;;4.20;;
46110;SDS011;31849;55.992;37.252;2023-02-28T11:31:02;6.57;;;4.07;;
46110;SDS011;31849;55.992;37.252;2023-02-28T11:36:09;7.78;;;4.28;;
46110;SDS011;31849;55.992;37.252;2023-02-28T11:41:28;6.80;;;4.03;;
46110;SDS011;31849;55.992;37.252;2023-02-28T11:46:47;6.82;;;4.25;;
46110;SDS011;31849;55.992;37.252;2023-02-28T11:51:56;7.10;;;3.90;;
46110;SDS011;31849;55.992;37.252;2023-02-28T11:57:11;8.13;;;4.25;;
46110;SDS011;31849;55.992;37.252;2023-02-28T12:02:28;6.68;;;3.80;;
46110;SDS011;31849;55.992;37.252;2023-02-28T12:07:37;5.47;;;3.38;;
46110;SDS011;31849;55.992;37.252;2023-02-28T12:12:47;5.88;;;3.30;;
46110;SDS011;31849;55.992;37.252;2023-02-28T12:18:07;5.95;;;3.45;;
46110;SDS011;31849;55.992;37.252;2023-02-28T12:23:34;5.70;;;3.47;;
46110;SDS011;31849;55.992;37.252;2023-02-28T12:28:50;5.68;;;3.25;;
46110;SDS011;31849;55.992;37.252;2023-02-28T12:33:59;7.10;;;3.80;;
46110;SDS011;31849;55.992;37.252;2023-02-28T12:39:07;6.18;;;3.63;;
46110;SDS011;31849;55.992;37.252;2023-02-28T12:44:17;4.88;;;2.92;;
46110;SDS011;31849;55.992;37.252;2023-02-28T12:49:27;5.60;;;3.17;;
46110;SDS011;31849;55.992;37.252;2023-02-28T12:54:36;5.15;;;2.58;;
46110;SDS011;31849;55.992;37.252;2023-02-28T12:59:48;5.25;;;2.67;;
46110;SDS011;31849;55.992;37.252;2023-02-28T13:05:10;5.53;;;2.70;;
46110;SDS011;31849;55.992;37.252;2023-02-28T13:10:42;5.80;;;2.80;;
46110;SDS011;31849;55.992;37.252;2023-02-28T13:15:57;5.22;;;2.92;;
46110;SDS011;31849;55.992;37.252;2023-02-28T13:21:04;6.03;;;3.05;;
46110;SDS011;31849;55.992;37.252;2023-02-28T13:26:09;4.88;;;2.70;;
46110;SDS011;31849;55.992;37.252;2023-02-28T13:31:14;4.60;;;2.47;;
46110;SDS011;31849;55.992;37.252;2023-02-28T13:36:25;5.82;;;3.00;;
46110;SDS011;31849;55.992;37.252;2023-02-28T13:41:44;6.43;;;2.40;;
46110;SDS011;31849;55.992;37.252;2023-02-28T13:52:25;10.83;;;5.80;;
46110;SDS011;31849;55.992;37.252;2023-02-28T13:57:32;6.85;;;2.80;;
46110;SDS011;31849;55.992;37.252;2023-02-28T14:02:59;6.63;;;3.00;;
46110;SDS011;31849;55.992;37.252;2023-02-28T14:08:13;5.90;;;3.15;;
46110;SDS011;31849;55.992;37.252;2023-02-28T14:13:39;5.93;;;3.00;;
46110;SDS011;31849;55.992;37.252;2023-02-28T14:18:49;4.55;;;2.97;;
46110;SDS011;31849;55.992;37.252;2023-02-28T14:29:43;5.00;;;2.88;;
46110;SDS011;31849;55.992;37.252;2023-02-28T14:35:21;5.10;;;3.20;;
46110;SDS011;31849;55.992;37.252;2023-02-28T14:40:39;6.18;;;3.40;;
46110;SDS011;31849;55.992;37.252;2023-02-28T14:45:48;5.70;;;3.08;;
46110;SDS011;31849;55.992;37.252;2023-02-28T14:50:54;4.85;;;3.00;;
46110;SDS011;31849;55.992;37.252;2023-02-28T14:55:59;4.68;;;3.25;;
46110;SDS011;31849;55.992;37.252;2023-02-28T15:01:04;5.53;;;3.10;;
46110;SDS011;31849;55.992;37.252;2023-02-28T15:06:12;4.50;;;2.80;;
46110;SDS011;31849;55.992;37.252;2023-02-28T15:11:18;4.72;;;2.67;;
46110;SDS011;31849;55.992;37.252;2023-02-28T15:16:25;5.68;;;2.95;;
46110;SDS011;31849;55.992;37.252;2023-02-28T15:21:34;4.88;;;2.88;;
46110;SDS011;31849;55.992;37.252;2023-02-28T15:26:41;4.50;;;2.85;;
46110;SDS011;31849;55.992;37.252;2023-02-28T15:32:00;4.82;;;2.65;;
46110;SDS011;31849;55.992;37.252;2023-02-28T15:37:06;3.72;;;2.33;;
46110;SDS011;31849;55.992;37.252;2023-02-28T15:42:31;6.10;;;3.22;;
46110;SDS011;31849;55.992;37.252;2023-02-28T15:47:36;4.20;;;2.70;;
46110;SDS011;31849;55.992;37.252;2023-02-28T15:52:40;5.40;;;2.75;;
46110;SDS011;31849;55.992;37.252;2023-02-28T15:57:47;4.85;;;2.60;;
46110;SDS011;31849;55.992;37.252;2023-02-28T16:02:54;4.43;;;2.60;;
46110;SDS011;31849;55.992;37.252;2023-02-28T16:07:58;5.07;;;2.67;;
46110;SDS011;31849;55.992;37.252;2023-02-28T16:13:03;3.83;;;2.58;;
46110;SDS011;31849;55.992;37.252;2023-02-28T16:18:08;4.77;;;2.27;;
46110;SDS011;31849;55.992;37.252;2023-02-28T16:23:14;5.97;;;2.40;;
46110;SDS011;31849;55.992;37.252;2023-02-28T16:28:19;3.92;;;2.42;;
46110;SDS011;31849;55.992;37.252;2023-02-28T16:33:27;3.80;;;2.08;;
46110;SDS011;31849;55.992;37.252;2023-02-28T16:43:35;4.07;;;2.08;;
46110;SDS011;31849;55.992;37.252;2023-02-28T16:53:45;4.57;;;2.00;;
46110;SDS011;31849;55.992;37.252;2023-02-28T16:58:49;4.00;;;1.77;;
46110;SDS011;31849;55.992;37.252;2023-02-28T17:03:55;3.80;;;1.90;;
46110;SDS011;31849;55.992;37.252;2023-02-28T17:14:02;3.35;;;1.80;;
46110;SDS011;31849;55.992;37.252;2023-02-28T17:19:09;3.80;;;1.60;;
46110;SDS011;31849;55.992;37.252;2023-02-28T17:24:15;2.67;;;1.42;;
46110;SDS011;31849;55.992;37.252;2023-02-28T17:29:30;2.65;;;0.90;;
46110;SDS011;31849;55.992;37.252;2023-02-28T17:34:35;2.03;;;0.70;;
46110;SDS011;31849;55.992;37.252;2023-02-28T17:44:42;1.20;;;0.50;;
46110;SDS011;31849;55.992;37.252;2023-02-28T17:49:47;2.83;;;1.08;;
46110;SDS011;31849;55.992;37.252;2023-02-28T17:54:50;1.48;;;0.70;;
46110;SDS011;31849;55.992;37.252;2023-02-28T17:59:54;4.70;;;1.10;;
46110;SDS011;31849;55.992;37.252;2023-02-28T18:04:59;2.95;;;1.10;;
46110;SDS011;31849;55.992;37.252;2023-02-28T18:10:06;4.55;;;1.23;;
46110;SDS011;31849;55.992;37.252;2023-02-28T18:15:17;4.00;;;1.60;;
46110;SDS011;31849;55.992;37.252;2023-02-28T18:20:24;5.75;;;1.70;;
46110;SDS011;31849;55.992;37.252;2023-02-28T18:25:27;2.42;;;1.08;;
46110;SDS011;31849;55.992;37.252;2023-02-28T18:30:32;3.53;;;1.40;;
46110;SDS011;31849;55.992;37.252;2023-02-28T18:35:40;2.28;;;1.20;;
46110;SDS011;31849;55.992;37.252;2023-02-28T18:40:50;3.45;;;1.20;;
46110;SDS011;31849;55.992;37.252;2023-02-28T18:45:55;5.07;;;1.30;;
46110;SDS011;31849;55.992;37.252;2023-02-28T18:51:05;4.57;;;1.30;;
46110;SDS011;31849;55.992;37.252;2023-02-28T18:56:10;4.05;;;1.63;;
46110;SDS011;31849;55.992;37.252;2023-02-28T19:01:15;3.97;;;1.30;;
46110;SDS011;31849;55.992;37.252;2023-02-28T19:06:23;3.05;;;1.20;;
46110;SDS011;31849;55.992;37.252;2023-02-28T19:11:27;4.38;;;1.40;;
46110;SDS011;31849;55.992;37.252;2023-02-28T19:16:30;4.63;;;1.53;;
46110;SDS011;31849;55.992;37.252;2023-02-28T19:21:35;5.53;;;1.52;;
46110;SDS011;31849;55.992;37.252;2023-02-28T19:26:39;3.88;;;1.00;;
46110;SDS011;31849;55.992;37.252;2023-02-28T19:31:42;6.30;;;1.30;;
46110;SDS011;31849;55.992;37.252;2023-02-28T19:36:48;3.42;;;1.02;;
46110;SDS011;31849;55.992;37.252;2023-02-28T19:46:54;1.88;;;0.70;;
46110;SDS011;31849;55.992;37.252;2023-02-28T19:51:59;4.68;;;0.80;;
46110;SDS011;31849;55.992;37.252;2023-02-28T19:57:03;3.20;;;0.90;;
46110;SDS011;31849;55.992;37.252;2023-02-28T20:02:09;3.85;;;0.77;;
46110;SDS011;31849;55.992;37.252;2023-02-28T20:07:17;2.50;;;0.70;;
46110;SDS011;31849;55.992;37.252;2023-02-28T20:12:21;1.73;;;0.75;;
46110;SDS011;31849;55.992;37.252;2023-02-28T20:17:26;4.53;;;0.98;;
46110;SDS011;31849;55.992;37.252;2023-02-28T20:22:32;1.85;;;0.63;;
46110;SDS011;31849;55.992;37.252;2023-02-28T20:27:38;3.45;;;1.00;;
46110;SDS011;31849;55.992;37.252;2023-02-28T20:32:42;2.55;;;0.90;;
46110;SDS011;31849;55.992;37.252;2023-02-28T20:37:47;2.20;;;0.90;;
46110;SDS011;31849;55.992;37.252;2023-02-28T20:42:51;3.40;;;0.90;;
46110;SDS011;31849;55.992;37.252;2023-02-28T20:47:54;3.58;;;0.95;;
46110;SDS011;31849;55.992;37.252;2023-02-28T20:52:59;2.65;;;1.00;;
46110;SDS011;31849;55.992;37.252;2023-02-28T20:58:02;4.20;;;0.93;;
46110;SDS011;31849;55.992;37.252;2023-02-28T21:03:06;1.75;;;0.90;;
46110;SDS011;31849;55.992;37.252;2023-02-28T21:08:11;1.63;;;0.70;;
46110;SDS011;31849;55.992;37.252;2023-02-28T21:18:18;3.03;;;0.80;;
46110;SDS011;31849;55.992;37.252;2023-02-28T21:23:23;2.95;;;0.80;;
46110;SDS011;31849;55.992;37.252;2023-02-28T21:28:27;2.15;;;0.80;;
46110;SDS011;31849;55.992;37.252;2023-02-28T21:33:30;4.05;;;1.00;;
46110;SDS011;31849;55.992;37.252;2023-02-28T21:38:35;3.20;;;1.15;;
46110;SDS011;31849;55.992;37.252;2023-02-28T21:43:40;3.28;;;0.80;;
46110;SDS011;31849;55.992;37.252;2023-02-28T21:53:51;3.30;;;1.15;;
46110;SDS011;31849;55.992;37.252;2023-02-28T21:58:54;4.20;;;1.15;;
46110;SDS011;31849;55.992;37.252;2023-02-28T22:04:01;3.97;;;0.90;;
46110;SDS011;31849;55.992;37.252;2023-02-28T22:09:08;1.85;;;0.90;;
46110;SDS011;31849;55.992;37.252;2023-02-28T22:14:12;2.13;;;0.95;;
46110;SDS011;31849;55.992;37.252;2023-02-28T22:19:15;4.25;;;1.00;;
46110;SDS011;31849;55.992;37.252;2023-02-28T22:24:20;6.18;;;0.80;;
46110;SDS011;31849;55.992;37.252;2023-02-28T22:29:25;2.50;;;0.80;;
46110;SDS011;31849;55.992;37.252;2023-02-28T22:34:28;4.25;;;0.88;;
46110;SDS011;31849;55.992;37.252;2023-02-28T22:39:33;2.08;;;0.70;;
46110;SDS011;31849;55.992;37.252;2023-02-28T22:44:37;3.67;;;0.90;;
46110;SDS011;31849;55.992;37.252;2023-02-28T22:49:41;3.35;;;0.93;;
46110;SDS011;31849;55.992;37.252;2023-02-28T22:54:49;4.05;;;0.82;;
46110;SDS011;31849;55.992;37.252;2023-02-28T22:59:53;1.43;;;0.77;;
46110;SDS011;31849;55.992;37.252;2023-02-28T23:04:57;3.37;;;0.70;;
46110;SDS011;31849;55.992;37.252;2023-02-28T23:10:04;2.92;;;0.90;;
46110;SDS011;31849;55.992;37.252;2023-02-28T23:15:09;5.47;;;0.80;;
46110;SDS011;31849;55.992;37.252;2023-02-28T23:20:14;5.47;;;1.47;;
46110;SDS011;31849;55.992;37.252;2023-02-28T23:25:22;2.43;;;0.73;;
46110;SDS011;31849;55.992;37.252;2023-02-28T23:30:26;2.60;;;0.60;;
46110;SDS011;31849;55.992;37.252;2023-02-28T23:35:30;1.20;;;0.50;;
46110;SDS011;31849;55.992;37.252;2023-02-28T23:40:35;3.93;;;0.73;;
46110;SDS011;31849;55.992;37.252;2023-02-28T23:45:39;1.47;;;0.60;;
46110;SDS011;31849;55.992;37.252;2023-02-28T23:50:47;3.70;;;0.70;;
46110;SDS011;31849;55.992;37.252;2023-02-28T23:55:52;5.60;;;1.00;;
